LMML/MLA METAR and TAF weather

Enter ICAO airport designator
Station Type Date Time Source
LMML METAR 2021/05/11 16:45 UTC NOAA

LMML 111645Z 12008KT 080V150 CAVOK 21/14 Q1013 NOSIG


Station Type Date Time Source
LMML Decoded METAR 2021/05/11 16:45 UTC NOAA

Luqa, Malta (LMML) 35-51N 014-29E 91M
May 11, 2021 - 12:45 PM EDT / 2021.05.11 1645 UTC
Wind: from the ESE (120 degrees) at 9 MPH (8 KT) (direction variable):0
Visibility: greater than 7 mile(s):0
Temperature: 69 F (21 C)
Dew Point: 57 F (14 C)
Relative Humidity: 64%
Pressure (altimeter): 29.91 in. Hg (1013 hPa)
ob: LMML 111645Z 12008KT 080V150 CAVOK 21/14 Q1013 NOSIG
cycle: 17

Station Type Date Time Source
LMML TAF 2021/05/11 18:46 UTC NOAA

TAF LMML 111700Z 1118/1218 05007KT 9999 FEW012
TEMPO 1118/1205 8000 BKN008 PROB40 1119/1202 5000 BR BKN005 PROB30
TEMPO 1120/1201 0800 FG BKN001
BECMG 1122/1201 33012KT
BECMG 1203/1206 33022G32KT
BECMG 1212/1215 30020G30KT

Example: see airport list